Time;durP1;ratioP1;P1;durP2;ratioP2;P2;SDS_P1;SDS_P2;PMS_P1;PMS_P2;Temp;Humidity;BMP_temperature;BMP_pressure;BME280_temperature;BME280_humidity;BME280_pressure;Samples;Min_cycle;Max_cycle;Signal;HPM_P1;HPM_P2
2022/09/06 00:01:01;;;;;;;7.60;1.92;;;;;;;18.09;65.18;100387.75;3145231;28;20422;-64
2022/09/06 00:02:33;;;;;;;;;;;;;;;18.02;65.57;100391.75;3145743;28;20461;-64
2022/09/06 00:04:05;;;;;;;9.65;2.03;;;;;;;17.98;65.42;100388.44;3144993;28;19920;-64
2022/09/06 00:05:37;;;;;;;4.20;2.03;;;;;;;17.95;65.77;100383.38;3144902;28;20060;-64
2022/09/06 00:07:08;;;;;;;5.32;2.28;;;;;;;17.91;66.04;100382.75;3145322;28;20394;-64
2022/09/06 00:08:40;;;;;;;6.97;2.05;;;;;;;17.94;65.85;100385.19;3145090;28;20048;-64
2022/09/06 00:10:12;;;;;;;5.30;2.07;;;;;;;17.94;65.79;100385.19;3145031;28;20418;-63
2022/09/06 00:11:44;;;;;;;12.15;2.30;;;;;;;17.98;65.77;100388.44;3145150;28;20509;-64
2022/09/06 00:13:15;;;;;;;6.53;2.00;;;;;;;18.00;65.74;100396.28;3144999;28;20052;-64
2022/09/06 00:14:46;;;;;;;4.53;2.40;;;;;;;18.04;65.48;100397.75;3144988;28;20041;-63
2022/09/06 00:16:22;;;;;;;6.88;2.08;;;;;;;18.04;65.40;100393.31;3145070;28;20131;-63
2022/09/06 00:17:53;;;;;;;5.20;2.10;;;;;;;18.04;65.46;100397.75;3145003;28;20175;-64
2022/09/06 00:19:24;;;;;;;6.57;2.25;;;;;;;18.01;65.47;100396.16;3145645;28;20048;-64
2022/09/06 00:20:55;;;;;;;8.23;2.60;;;;;;;18.04;65.35;100395.94;3145184;28;20121;-64
2022/09/06 00:22:27;;;;;;;9.13;2.15;;;;;;;18.09;65.24;100398.28;3144856;28;20052;-64
2022/09/06 00:23:59;;;;;;;3.15;2.08;;;;;;;18.11;65.06;100405.16;3145532;28;20045;-64
2022/09/06 00:25:32;;;;;;;6.13;2.05;;;;;;;18.09;64.92;100385.94;3145095;28;20052;-64
2022/09/06 00:27:03;;;;;;;8.65;2.95;;;;;;;18.18;64.90;100395.88;3145285;28;20044;-64
2022/09/06 00:28:35;;;;;;;4.03;2.30;;;;;;;18.21;64.69;100400.09;3145270;28;20052;-64
2022/09/06 00:30:08;;;;;;;7.82;2.30;;;;;;;18.22;64.65;100395.66;3144993;28;20048;-64
2022/09/06 00:31:41;;;;;;;3.90;1.85;;;;;;;18.19;64.60;100397.56;3147516;28;20057;-64
2022/09/06 00:33:14;;;;;;;4.40;1.80;;;;;;;18.07;64.63;100377.31;3145176;28;20052;-64
2022/09/06 00:34:45;;;;;;;4.97;2.38;;;;;;;18.13;64.78;100394.47;3145059;28;20070;-64
2022/09/06 00:36:18;;;;;;;6.80;2.00;;;;;;;18.12;64.88;100391.00;3145357;28;20063;-64
2022/09/06 00:37:50;;;;;;;5.55;2.17;;;;;;;18.08;64.80;100397.44;3144866;28;20675;-65
2022/09/06 00:39:22;;;;;;;5.88;2.30;;;;;;;18.06;64.92;100399.34;3144988;28;20052;-64
2022/09/06 00:40:53;;;;;;;6.43;2.10;;;;;;;18.05;65.03;100402.94;3144871;28;20087;-64
2022/09/06 00:42:25;;;;;;;4.32;2.45;;;;;;;18.04;64.97;100401.22;3145102;28;20771;-64
2022/09/06 00:43:57;;;;;;;6.10;2.00;;;;;;;18.05;65.12;100402.09;3145086;28;20087;-64
2022/09/06 00:45:29;;;;;;;7.65;2.47;;;;;;;18.03;65.04;100406.59;3143254;28;20049;-64
2022/09/06 00:47:04;;;;;;;3.53;2.05;;;;;;;18.05;65.02;100402.09;3144449;28;20674;-64
2022/09/06 00:48:36;;;;;;;7.13;2.15;;;;;;;18.03;65.03;100401.34;3145092;28;20140;-64
2022/09/06 00:50:11;;;;;;;4.77;2.10;;;;;;;18.02;65.11;100404.94;3144795;28;20087;-64
2022/09/06 00:51:42;;;;;;;4.15;2.10;;;;;;;17.90;65.28;100386.34;3144958;28;20412;-64
2022/09/06 00:53:14;;;;;;;6.63;2.08;;;;;;;17.98;65.37;100398.16;3144719;28;20054;-64
2022/09/06 00:54:47;;;;;;;10.27;2.35;;;;;;;17.98;65.28;100393.72;3144641;28;20139;-63
2022/09/06 00:56:19;;;;;;;3.40;2.10;;;;;;;18.01;65.28;100405.84;3142858;28;20098;-63
2022/09/06 00:57:50;;;;;;;6.13;2.38;;;;;;;18.01;65.18;100401.41;3141642;28;20049;-63
2022/09/06 00:59:25;;;;;;;5.43;2.35;;;;;;;18.05;65.22;100404.72;3144739;28;20135;-64
2022/09/06 01:00:56;;;;;;;4.05;1.90;;;;;;;18.03;65.03;100396.06;3144547;28;20127;-64
2022/09/06 01:02:29;;;;;;;5.03;2.60;;;;;;;18.07;64.95;100400.16;3144843;28;20576;-64
2022/09/06 01:04:03;;;;;;;6.07;2.10;;;;;;;18.07;64.87;100405.44;3144985;28;20101;-64
2022/09/06 01:05:43;;;;;;;6.57;2.50;;;;;;;18.03;65.14;100396.91;3145051;28;20056;-64
2022/09/06 01:07:26;;;;;;;7.88;1.88;;;;;;;17.98;65.35;100387.59;3145140;28;20052;-62
2022/09/06 01:09:07;;;;;;;3.78;2.08;;;;;;;18.04;65.25;100400.38;3144746;28;20067;-62
2022/09/06 01:11:05;;;;;;;6.75;2.55;;;;;;;18.03;65.29;100396.91;3143583;28;20071;-62
2022/09/06 01:12:57;;;;;;;6.03;1.77;;;;;;;18.03;65.04;100396.06;3141549;28;20083;-65
2022/09/06 01:14:39;;;;;;;4.80;2.03;;;;;;;18.05;65.02;100397.66;3143397;28;20494;-63
2022/09/06 01:16:16;;;;;;;6.75;2.13;;;;;;;18.05;64.81;100397.66;3144506;28;20052;-63
2022/09/06 01:18:01;;;;;;;5.78;2.03;;;;;;;18.00;65.05;100388.38;3145116;28;20437;-64
2022/09/06 01:19:55;;;;;;;6.78;2.05;;;;;;;18.07;64.94;100400.16;3144876;28;20067;-65
2022/09/06 01:21:45;;;;;;;6.88;2.40;;;;;;;18.06;64.93;100403.75;3139948;28;20166;-64
2022/09/06 01:23:43;;;;;;;6.68;2.40;;;;;;;18.05;65.08;100399.44;3144731;28;20101;-65
2022/09/06 01:25:34;;;;;;;5.70;2.20;;;;;;;18.04;65.05;100401.22;3144908;28;20075;-64
2022/09/06 01:27:27;;;;;;;8.70;2.72;;;;;;;18.03;65.14;100403.97;3144441;28;20044;-65
2022/09/06 01:28:59;;;;;;;3.97;2.30;;;;;;;18.01;65.02;100397.94;3141045;28;20052;-64
2022/09/06 01:30:36;;;;;;;8.05;2.50;;;;;;;18.02;65.25;100402.28;3144691;28;20102;-65
2022/09/06 01:32:15;;;;;;;7.20;2.28;;;;;;;18.03;65.24;100398.69;3144891;28;20097;-64
2022/09/06 01:33:55;;;;;;;2.85;2.00;;;;;;;18.03;65.13;100396.91;3144725;28;20044;-65
2022/09/06 01:35:33;;;;;;;4.47;1.95;;;;;;;18.03;65.34;100396.91;3144878;28;20053;-64
2022/09/06 01:37:11;;;;;;;5.68;2.30;;;;;;;18.04;65.15;100389.84;3144530;28;20052;-64
2022/09/06 01:38:43;;;;;;;4.97;2.00;;;;;;;18.05;65.35;100399.44;3144393;28;20060;-65
2022/09/06 01:40:15;;;;;;;3.72;2.22;;;;;;;18.03;65.35;100390.78;3144634;28;20577;-64
2022/09/06 01:41:46;;;;;;;6.65;2.58;;;;;;;18.04;65.34;100387.19;3137614;28;20502;-63
2022/09/06 01:43:24;;;;;;;4.45;2.15;;;;;;;18.05;65.50;100381.00;3144683;28;20539;-63
2022/09/06 01:44:58;;;;;;;5.60;2.28;;;;;;;18.02;65.47;100370.66;3144606;28;20048;-64
2022/09/06 01:46:38;;;;;;;8.43;2.58;;;;;;;18.06;65.52;100380.03;3144621;28;20049;-63
2022/09/06 01:48:20;;;;;;;4.97;2.38;;;;;;;18.08;65.43;100375.53;3144685;28;20048;-63
2022/09/06 01:50:09;;;;;;;6.72;2.20;;;;;;;18.00;65.20;100359.38;3144651;28;20049;-63
2022/09/06 01:51:56;;;;;;;5.93;2.53;;;;;;;18.09;65.37;100375.41;3144331;28;20052;-64
2022/09/06 01:54:03;;;;;;;5.82;2.90;;;;;;;18.01;65.52;100361.06;3144601;28;20096;-64
2022/09/06 01:55:41;;;;;;;4.07;2.13;;;;;;;18.00;65.63;100356.75;3140552;28;20056;-64
2022/09/06 01:57:23;;;;;;;4.85;2.20;;;;;;;18.06;65.92;100364.22;3144268;28;20139;-64
2022/09/06 01:59:10;;;;;;;6.13;2.88;;;;;;;18.08;65.50;100367.63;3144552;28;20049;-64
2022/09/06 02:00:46;;;;;;;5.00;2.47;;;;;;;18.07;65.50;100363.28;3140534;28;20056;-64
2022/09/06 02:02:26;;;;;;;11.80;2.70;;;;;;;18.06;65.51;100357.16;3146724;28;20887;-63
2022/09/06 02:04:04;;;;;;;5.68;2.42;;;;;;;18.06;65.44;100348.41;3146738;28;20601;-64
2022/09/06 02:05:43;;;;;;;8.77;2.95;;;;;;;18.08;65.49;100351.81;3146681;28;20382;-63
2022/09/06 02:07:21;;;;;;;7.10;2.95;;;;;;;18.07;65.58;100352.72;3146708;28;20500;-64
2022/09/06 02:08:57;;;;;;;4.88;2.22;;;;;;;18.07;65.42;100358.88;3144527;28;20048;-64
2022/09/06 02:10:33;;;;;;;4.93;2.47;;;;;;;18.07;65.45;100355.38;3143931;28;20602;-65
2022/09/06 02:12:07;;;;;;;7.30;2.42;;;;;;;18.06;65.69;100354.53;3146997;28;20045;-64
2022/09/06 02:13:39;;;;;;;;;;;;;;;18.04;65.54;100356.41;3147014;28;20119;-64
2022/09/06 02:15:18;;;;;;;20.35;2.80;;;;;;;18.03;65.27;100354.72;3146497;28;19924;-64
2022/09/06 02:16:53;;;;;;;7.20;2.78;;;;;;;18.03;65.57;100356.53;3146698;28;20044;-63
2022/09/06 02:18:33;;;;;;;5.43;2.25;;;;;;;18.03;65.67;100348.63;3146593;28;20517;-63
2022/09/06 02:20:08;;;;;;;6.78;2.40;;;;;;;18.02;65.70;100353.06;3146800;28;20041;-63
2022/09/06 02:21:45;;;;;;;8.48;2.33;;;;;;;18.01;65.87;100356.63;3146731;28;20044;-63
2022/09/06 02:23:19;;;;;;;7.15;2.90;;;;;;;17.99;65.69;100353.25;3148342;28;20052;-63
2022/09/06 02:24:53;;;;;;;6.20;2.70;;;;;;;17.99;65.53;100350.63;3146926;28;20158;-63
2022/09/06 02:26:28;;;;;;;7.45;3.00;;;;;;;17.98;65.69;100353.34;3146321;28;20049;-63
2022/09/06 02:27:59;;;;;;;8.05;2.80;;;;;;;17.98;65.71;100353.34;3146428;28;20052;-64
2022/09/06 02:29:31;;;;;;;7.07;2.70;;;;;;;17.94;65.88;100355.34;3146626;28;20528;-64
2022/09/06 02:31:12;;;;;;;10.40;2.85;;;;;;;17.91;66.10;100352.94;3146742;28;20147;-63
2022/09/06 02:32:50;;;;;;;6.90;2.63;;;;;;;17.87;66.22;100354.09;3146622;28;20131;-63
2022/09/06 02:34:22;;;;;;;6.43;3.00;;;;;;;17.84;66.13;100360.41;3144309;28;20106;-64
2022/09/06 02:35:55;;;;;;;4.18;2.40;;;;;;;17.81;66.38;100360.59;3146528;28;20060;-64
2022/09/06 02:37:26;;;;;;;5.32;2.45;;;;;;;17.80;66.44;100360.69;3146277;28;20048;-64
2022/09/06 02:39:00;;;;;;;4.20;2.40;;;;;;;17.82;66.45;100356.19;3146214;28;20041;-64
2022/09/06 02:40:32;;;;;;;13.98;3.10;;;;;;;17.83;66.29;100355.22;3146542;28;20048;-64
2022/09/06 02:42:05;;;;;;;6.20;2.80;;;;;;;17.84;66.51;100355.13;3146242;28;20044;-64
2022/09/06 02:43:36;;;;;;;11.07;2.95;;;;;;;17.82;66.42;100357.00;3146538;28;20048;-64
2022/09/06 02:45:09;;;;;;;4.60;2.42;;;;;;;17.82;66.41;100350.91;3146387;28;20059;-65
2022/09/06 02:46:42;;;;;;;6.30;2.60;;;;;;;17.85;66.39;100350.69;3146132;28;20521;-65
2022/09/06 02:48:14;;;;;;;6.95;2.35;;;;;;;17.83;66.17;100353.44;3142310;28;20049;-65
2022/09/06 02:49:46;;;;;;;3.03;2.28;;;;;;;17.84;66.27;100351.66;3146310;28;20057;-65
2022/09/06 02:51:18;;;;;;;9.35;2.88;;;;;;;17.84;66.02;100352.50;3146128;28;20049;-64
2022/09/06 02:53:01;;;;;;;9.52;2.42;;;;;;;17.82;66.07;100351.75;3145459;28;20055;-64
2022/09/06 02:54:33;;;;;;;7.72;2.47;;;;;;;17.80;66.15;100353.63;3146204;28;20048;-64
2022/09/06 02:56:04;;;;;;;3.97;2.30;;;;;;;17.74;66.16;100354.00;3146335;28;20082;-64
2022/09/06 02:57:36;;;;;;;6.82;2.53;;;;;;;17.68;66.24;100349.97;3145821;28;20540;-65
2022/09/06 02:59:08;;;;;;;5.68;2.25;;;;;;;17.65;66.37;100351.97;3146232;28;20048;-65
2022/09/06 03:00:39;;;;;;;4.50;2.60;;;;;;;17.57;66.64;100363.03;3146220;28;20119;-64
2022/09/06 03:02:13;;;;;;;5.75;2.58;;;;;;;17.52;66.87;100371.22;3145306;28;20052;-64
2022/09/06 03:03:45;;;;;;;11.73;2.95;;;;;;;17.49;66.83;100368.78;3145976;28;20071;-64
2022/09/06 03:05:17;;;;;;;3.85;2.45;;;;;;;17.46;66.91;100363.72;3145748;28;20562;-64
2022/09/06 03:06:49;;;;;;;6.18;2.67;;;;;;;17.47;66.72;100368.03;3145677;28;20044;-64
2022/09/06 03:08:24;;;;;;;5.20;2.45;;;;;;;17.47;66.92;100367.19;3145982;28;20506;-64
2022/09/06 03:09:57;;;;;;;5.70;2.63;;;;;;;17.48;66.84;100371.50;3145585;28;20469;-65
2022/09/06 03:11:28;;;;;;;9.23;2.88;;;;;;;17.48;66.83;100367.13;3146080;28;20072;-65
2022/09/06 03:12:59;;;;;;;6.18;2.80;;;;;;;17.51;66.92;100372.19;3146027;28;20060;-64
2022/09/06 03:14:31;;;;;;;7.95;3.33;;;;;;;17.48;66.75;100376.78;3144455;28;20444;-65
2022/09/06 03:16:03;;;;;;;4.70;2.65;;;;;;;17.43;66.85;100366.56;3145815;28;20052;-65
2022/09/06 03:17:36;;;;;;;4.05;2.60;;;;;;;17.52;66.84;100378.28;3146003;28;20048;-65
2022/09/06 03:19:08;;;;;;;5.93;2.75;;;;;;;17.52;66.79;100376.50;3147273;28;20053;-64
2022/09/06 03:20:39;;;;;;;6.80;2.70;;;;;;;17.53;66.70;100377.34;3149068;28;20059;-63
2022/09/06 03:22:11;;;;;;;6.10;2.50;;;;;;;17.54;66.66;100380.81;3145776;28;20635;-65
2022/09/06 03:23:44;;;;;;;4.45;2.83;;;;;;;17.53;66.75;100382.59;3145768;28;20441;-64
2022/09/06 03:25:15;;;;;;;8.38;3.08;;;;;;;17.48;66.82;100388.19;3146054;28;20128;-65
2022/09/06 03:26:47;;;;;;;6.65;2.70;;;;;;;17.50;66.82;100380.16;3145682;28;20044;-65
2022/09/06 03:28:20;;;;;;;7.22;3.38;;;;;;;17.46;67.02;100376.91;3145794;28;20105;-65
2022/09/06 03:29:51;;;;;;;8.75;3.05;;;;;;;17.46;66.89;100376.91;3145546;28;20536;-64
2022/09/06 03:31:23;;;;;;;5.68;3.05;;;;;;;17.46;66.86;100387.41;3145976;28;20058;-64
2022/09/06 03:32:55;;;;;;;6.93;3.33;;;;;;;17.46;67.00;100384.78;3145710;28;20056;-65
2022/09/06 03:34:27;;;;;;;8.98;3.30;;;;;;;17.46;66.95;100386.59;3145322;28;20044;-64
2022/09/06 03:36:00;;;;;;;6.15;3.35;;;;;;;17.48;66.75;100377.66;3145694;28;20548;-64
2022/09/06 03:37:32;;;;;;;9.05;3.30;;;;;;;17.49;66.82;100379.31;3145796;28;20441;-64
2022/09/06 03:39:04;;;;;;;10.48;3.65;;;;;;;17.50;66.74;100382.81;3145574;28;20117;-65
2022/09/06 03:40:35;;;;;;;9.43;3.92;;;;;;;17.49;66.83;100378.47;3145603;28;20049;-65
2022/09/06 03:42:07;;;;;;;9.50;3.40;;;;;;;17.50;66.88;100383.63;3145640;28;20048;-65
2022/09/06 03:43:39;;;;;;;9.20;3.65;;;;;;;17.47;67.02;100377.72;3145537;28;20052;-65
2022/09/06 03:45:11;;;;;;;11.88;3.83;;;;;;;17.48;66.84;100382.03;3145551;28;20056;-63
2022/09/06 03:46:43;;;;;;;7.20;3.80;;;;;;;17.47;66.92;100380.38;3144774;28;20048;-65
2022/09/06 03:48:17;;;;;;;7.40;3.65;;;;;;;17.48;66.84;100382.91;3145315;28;20131;-64
2022/09/06 03:49:49;;;;;;;6.20;3.00;;;;;;;17.49;66.94;100381.97;3141323;28;20482;-64
2022/09/06 03:51:21;;;;;;;10.27;3.83;;;;;;;17.50;66.81;100380.16;3145470;28;20044;-63
2022/09/06 03:52:53;;;;;;;5.80;3.50;;;;;;;17.51;66.87;100387.97;3145390;28;20051;-63
2022/09/06 03:54:27;;;;;;;10.70;3.58;;;;;;;17.50;66.93;100381.00;3145506;28;20051;-64
2022/09/06 03:55:59;;;;;;;5.28;3.38;;;;;;;17.50;66.90;100388.06;3145339;28;20060;-64
2022/09/06 03:57:31;;;;;;;11.45;4.00;;;;;;;17.49;66.93;100384.59;3145013;28;20067;-64
2022/09/06 03:59:03;;;;;;;8.13;3.17;;;;;;;17.52;66.75;100384.38;3145498;28;20057;-64
2022/09/06 04:00:34;;;;;;;9.27;3.30;;;;;;;17.51;66.69;100385.34;3145249;28;20477;-64
2022/09/06 04:02:06;;;;;;;10.30;3.50;;;;;;;17.52;66.81;100394.09;3145361;28;20052;-65
2022/09/06 04:03:40;;;;;;;9.07;3.50;;;;;;;17.49;66.85;100391.66;3145283;28;20109;-65
2022/09/06 04:05:12;;;;;;;5.68;3.33;;;;;;;17.44;67.10;100394.56;3145256;28;20139;-65
2022/09/06 04:06:43;;;;;;;6.03;3.60;;;;;;;17.45;67.10;100403.31;3145318;28;20051;-65
2022/09/06 04:08:14;;;;;;;6.15;3.60;;;;;;;17.45;67.03;100401.53;3145135;28;20087;-64
2022/09/06 04:09:46;;;;;;;5.90;3.47;;;;;;;17.45;67.05;100398.03;3145378;28;20135;-65
2022/09/06 04:11:17;;;;;;;10.20;3.58;;;;;;;17.39;67.40;100401.06;3145342;28;20052;-64
2022/09/06 04:12:49;;;;;;;7.22;3.72;;;;;;;17.36;67.50;100410.03;3145701;28;20048;-65
2022/09/06 04:14:21;;;;;;;7.50;4.03;;;;;;;17.35;67.50;100413.59;3145342;28;20052;-64
2022/09/06 04:15:53;;;;;;;8.93;3.83;;;;;;;17.34;67.62;100411.91;3146250;28;20040;-64
2022/09/06 04:17:25;;;;;;;5.65;3.30;;;;;;;17.27;67.73;100414.09;3143227;28;20048;-64
2022/09/06 04:19:00;;;;;;;6.70;3.50;;;;;;;17.31;67.70;100414.75;3140117;28;20053;-65
2022/09/06 04:20:32;;;;;;;12.98;3.67;;;;;;;17.32;67.62;100419.06;3139865;28;20603;-64
2022/09/06 04:22:04;;;;;;;7.63;3.38;;;;;;;17.33;67.63;100418.09;3139434;28;20122;-63
2022/09/06 04:23:36;;;;;;;8.32;4.05;;;;;;;17.32;67.77;100421.69;3139685;28;20128;-64
2022/09/06 04:25:09;;;;;;;10.05;4.07;;;;;;;17.31;67.84;100413.91;3139945;28;20774;-63
2022/09/06 04:26:41;;;;;;;10.85;3.90;;;;;;;17.31;67.79;100419.16;3140009;28;20504;-63
2022/09/06 04:28:13;;;;;;;5.78;3.40;;;;;;;17.32;67.75;100421.69;3139927;28;20056;-64
2022/09/06 04:29:45;;;;;;;14.60;4.45;;;;;;;17.34;67.79;100413.69;3140058;28;20052;-63
2022/09/06 04:31:17;;;;;;;7.68;3.60;;;;;;;17.32;67.86;100419.06;3139177;28;20551;-64
2022/09/06 04:32:49;;;;;;;11.35;3.95;;;;;;;17.27;67.99;100414.09;3139936;28;20525;-64
2022/09/06 04:34:23;;;;;;;11.93;3.92;;;;;;;17.25;67.95;100417.75;3140233;28;20140;-65
2022/09/06 04:35:55;;;;;;;;;;;;;;;17.16;68.23;100411.28;3140295;28;20156;-64
2022/09/06 04:37:27;;;;;;;8.02;3.67;;;;;;;17.15;68.07;100414.00;3136473;28;20556;-64
2022/09/06 04:38:59;;;;;;;11.45;4.07;;;;;;;17.11;68.26;100409.88;3139737;28;20056;-64
2022/09/06 04:40:30;;;;;;;7.45;3.75;;;;;;;17.10;68.48;100411.66;3139450;28;20440;-63
2022/09/06 04:42:02;;;;;;;7.68;3.83;;;;;;;17.13;68.54;100413.28;3139851;28;20048;-64
2022/09/06 04:43:34;;;;;;;8.80;3.70;;;;;;;17.10;68.48;100410.84;3139778;28;20402;-65
2022/09/06 04:45:06;;;;;;;7.03;3.85;;;;;;;17.04;68.64;100404.16;3139536;28;20056;-65
2022/09/06 04:46:41;;;;;;;8.43;3.95;;;;;;;17.05;68.85;100411.09;3139998;28;20063;-64
2022/09/06 04:48:13;;;;;;;8.40;3.58;;;;;;;17.02;69.08;100401.63;3135020;28;20108;-67
2022/09/06 04:49:48;;;;;;;11.25;6.78;;;;;;;17.04;69.18;100407.63;3131482;28;20840;-66
2022/09/06 04:51:21;;;;;;;13.02;7.65;;;;;;;17.02;69.46;100404.25;3129814;28;20049;-67
2022/09/06 04:52:54;;;;;;;11.60;5.28;;;;;;;17.06;69.22;100400.47;3132355;28;20048;-67
2022/09/06 04:54:27;;;;;;;26.45;13.93;;;;;;;17.06;69.38;100403.09;3134007;28;20052;-67
2022/09/06 04:55:59;;;;;;;12.48;6.45;;;;;;;17.03;69.57;100400.66;3133782;28;20593;-67
2022/09/06 04:57:31;;;;;;;11.98;5.22;;;;;;;17.09;69.47;100403.84;3129380;28;20052;-67
2022/09/06 04:59:02;;;;;;;9.25;4.82;;;;;;;17.06;69.71;100404.88;3130036;28;20083;-64
2022/09/06 05:00:37;;;;;;;14.73;5.32;;;;;;;17.04;69.68;100410.25;3139394;28;20158;-65
2022/09/06 05:02:09;;;;;;;9.93;4.72;;;;;;;17.08;69.44;100410.91;3138368;28;20059;-64
2022/09/06 05:03:41;;;;;;;14.18;5.53;;;;;;;17.11;69.35;100412.50;3129520;28;20049;-64
2022/09/06 05:05:14;;;;;;;6.30;4.10;;;;;;;17.11;69.21;100402.81;3130415;28;20501;-64
2022/09/06 05:06:46;;;;;;;8.70;4.55;;;;;;;17.14;69.37;100407.91;3130709;28;20140;-64
2022/09/06 05:08:18;;;;;;;10.07;4.13;;;;;;;17.16;69.31;100406.03;3133037;28;20056;-64
2022/09/06 05:09:50;;;;;;;6.57;3.83;;;;;;;17.19;69.15;100405.00;3136868;28;20145;-64
2022/09/06 05:11:22;;;;;;;8.68;4.18;;;;;;;17.18;69.17;100409.38;3139531;28;20044;-64
2022/09/06 05:12:55;;;;;;;12.48;4.75;;;;;;;17.18;69.08;100403.28;3140544;28;20504;-63
2022/09/06 05:14:26;;;;;;;7.85;4.22;;;;;;;17.18;69.10;100406.75;3139377;28;20135;-63
2022/09/06 05:16:01;;;;;;;6.30;3.83;;;;;;;17.17;69.07;100402.44;3139406;28;20067;-64
2022/09/06 05:17:33;;;;;;;7.45;4.65;;;;;;;17.18;69.00;100403.28;3139551;28;20672;-64
2022/09/06 05:19:05;;;;;;;6.30;3.90;;;;;;;17.20;68.92;100407.50;3139468;28;20143;-64
2022/09/06 05:20:39;;;;;;;16.90;5.30;;;;;;;17.20;68.86;100404.88;3139576;28;20478;-64
2022/09/06 05:22:10;;;;;;;6.97;4.18;;;;;;;17.19;69.05;100395.31;3138690;28;20118;-65
2022/09/06 05:23:42;;;;;;;8.68;4.45;;;;;;;17.22;68.98;100402.16;3139608;28;20056;-64
2022/09/06 05:25:15;;;;;;;10.60;4.90;;;;;;;17.23;69.18;100395.94;3139186;28;20492;-64
2022/09/06 05:26:47;;;;;;;10.82;4.78;;;;;;;17.21;68.88;100388.13;3139267;28;20056;-63
2022/09/06 05:28:20;;;;;;;10.10;4.57;;;;;;;17.28;68.92;100392.09;3139325;28;20528;-63
2022/09/06 05:29:52;;;;;;;10.43;4.55;;;;;;;17.30;68.91;100391.97;3139429;28;20437;-63
2022/09/06 05:31:27;;;;;;;7.32;4.65;;;;;;;17.35;68.76;100396.94;3139585;28;20418;-63
2022/09/06 05:32:59;;;;;;;11.18;4.93;;;;;;;17.38;68.88;100389.69;3139182;28;20513;-64
2022/09/06 05:34:31;;;;;;;12.02;4.40;;;;;;;17.38;69.06;100399.38;3141840;28;20048;-64
2022/09/06 05:36:05;;;;;;;8.55;4.50;;;;;;;17.44;69.00;100397.19;3141999;28;20059;-63
2022/09/06 05:37:37;;;;;;;8.65;4.10;;;;;;;17.49;68.84;100387.22;3141658;28;20044;-64
2022/09/06 05:39:09;;;;;;;8.90;4.60;;;;;;;17.56;68.77;100392.94;3136960;28;20055;-64
2022/09/06 05:40:41;;;;;;;11.27;5.20;;;;;;;17.61;68.59;100387.38;3138565;28;20056;-63
2022/09/06 05:42:13;;;;;;;9.85;4.50;;;;;;;17.65;68.43;100391.50;3139719;28;20057;-62
2022/09/06 05:43:45;;;;;;;11.68;4.53;;;;;;;17.70;68.33;100395.53;3141842;28;20052;-62
2022/09/06 05:45:17;;;;;;;9.93;4.93;;;;;;;17.68;68.17;100383.38;3141757;28;20044;-62
2022/09/06 05:46:49;;;;;;;9.60;4.40;;;;;;;17.74;68.03;100391.72;3141919;28;20085;-63
2022/09/06 05:48:21;;;;;;;8.35;4.65;;;;;;;17.81;67.94;100389.59;3141910;28;20044;-63
2022/09/06 05:49:54;;;;;;;9.90;4.38;;;;;;;17.83;67.69;100390.31;3141011;28;20052;-65
2022/09/06 05:51:27;;;;;;;21.05;4.93;;;;;;;17.93;67.46;100390.56;3141542;28;20578;-64
2022/09/06 05:52:59;;;;;;;7.15;4.85;;;;;;;18.01;67.47;100382.97;3141435;28;20059;-64
2022/09/06 05:54:30;;;;;;;8.15;4.43;;;;;;;18.10;67.14;100387.66;3139410;28;20060;-64
2022/09/06 05:56:04;;;;;;;8.23;4.22;;;;;;;18.24;66.76;100388.50;3141638;28;20048;-64
2022/09/06 05:57:35;;;;;;;6.78;4.18;;;;;;;18.35;66.39;100385.97;3140487;28;20041;-64
2022/09/06 05:59:08;;;;;;;8.27;3.85;;;;;;;18.51;65.96;100383.13;3141797;28;20122;-64
2022/09/06 06:00:39;;;;;;;9.90;4.53;;;;;;;18.64;65.70;100386.63;3141668;28;20044;-65
2022/09/06 06:02:10;;;;;;;6.85;4.00;;;;;;;18.79;65.03;100380.31;3141680;28;20132;-64
2022/09/06 06:03:43;;;;;;;10.15;4.03;;;;;;;18.89;64.39;100380.50;3141685;28;20125;-66
2022/09/06 06:05:15;;;;;;;7.30;3.80;;;;;;;18.96;64.00;100384.41;3141774;28;20056;-62
2022/09/06 06:06:49;;;;;;;7.93;3.70;;;;;;;19.03;63.78;100380.34;3141536;28;20134;-61
2022/09/06 06:08:36;;;;;;;8.48;4.18;;;;;;;19.16;63.45;100377.69;3142547;28;20311;-63
2022/09/06 06:10:09;;;;;;;8.95;3.33;;;;;;;19.28;63.34;100382.06;3146574;28;20537;-61
2022/09/06 06:11:41;;;;;;;6.10;3.95;;;;;;;19.37;63.07;100379.72;3146781;28;20580;-62
2022/09/06 06:13:13;;;;;;;8.82;3.90;;;;;;;19.49;62.59;100374.41;3145818;28;20514;-60
2022/09/06 06:14:45;;;;;;;10.68;3.67;;;;;;;19.62;62.45;100371.69;3146509;28;20055;-63
2022/09/06 06:16:19;;;;;;;11.75;4.00;;;;;;;19.76;62.28;100373.38;3146261;28;20109;-62
2022/09/06 06:17:51;;;;;;;5.85;3.78;;;;;;;19.83;61.75;100369.28;3146618;28;20052;-61
2022/09/06 06:19:23;;;;;;;5.32;3.75;;;;;;;19.90;61.49;100367.03;3146742;28;20437;-61
2022/09/06 06:21:07;;;;;;;6.43;3.60;;;;;;;19.91;61.08;100371.38;3146647;28;20431;-62
2022/09/06 06:22:41;;;;;;;8.73;4.47;;;;;;;19.93;61.02;100372.06;3145854;28;20830;-61
2022/09/06 06:24:13;;;;;;;6.60;4.10;;;;;;;19.98;60.64;100368.13;3146912;28;20078;-62
2022/09/06 06:25:45;;;;;;;8.90;3.90;;;;;;;20.05;60.83;100376.44;3146479;28;20040;-62
2022/09/06 06:27:17;;;;;;;8.70;4.20;;;;;;;20.10;60.57;100374.28;3146705;28;20055;-63
2022/09/06 06:28:49;;;;;;;6.80;3.50;;;;;;;20.21;60.32;100379.63;3146529;28;20055;-61
2022/09/06 06:30:20;;;;;;;7.97;3.83;;;;;;;20.31;60.37;100379.75;3146392;28;20063;-61
2022/09/06 06:31:54;;;;;;;6.50;3.42;;;;;;;20.36;60.08;100371.47;3146004;28;20480;-61
2022/09/06 06:33:26;;;;;;;15.65;7.72;;;;;;;20.48;59.42;100383.75;3147305;28;20114;-63
2022/09/06 06:34:58;;;;;;;11.63;4.65;;;;;;;20.54;59.36;100380.66;3146610;28;20052;-62
2022/09/06 06:36:32;;;;;;;6.70;4.43;;;;;;;20.59;58.83;100380.31;3146995;28;20048;-63
2022/09/06 06:38:05;;;;;;;10.95;6.50;;;;;;;20.62;58.88;100382.72;3146598;28;20048;-66
2022/09/06 06:39:37;;;;;;;10.23;4.30;;;;;;;20.70;58.92;100379.47;3146858;28;20059;-65
2022/09/06 06:41:10;;;;;;;11.75;4.75;;;;;;;20.77;58.67;100378.88;3146745;28;20044;-64
2022/09/06 06:42:43;;;;;;;10.93;4.38;;;;;;;20.85;58.62;100376.47;3146582;28;20501;-64
2022/09/06 06:44:15;;;;;;;16.88;4.18;;;;;;;20.92;58.49;100374.16;3145598;28;20509;-66
2022/09/06 06:45:48;;;;;;;29.17;15.00;;;;;;;21.00;58.18;100379.72;3139375;28;20556;-68
2022/09/06 06:47:20;;;;;;;16.85;9.73;;;;;;;21.09;58.27;100375.47;3139502;28;20061;-66
2022/09/06 06:48:54;;;;;;;13.50;5.30;;;;;;;21.18;57.73;100377.38;3136974;28;20049;-63
2022/09/06 06:50:25;;;;;;;;;;;;;;;21.19;57.25;100370.28;3146262;28;20056;-64
2022/09/06 06:51:57;;;;;;;8.32;3.90;;;;;;;21.26;57.36;100371.47;3144820;28;20314;-62
2022/09/06 06:53:31;;;;;;;9.70;4.93;;;;;;;21.34;56.95;100364.56;3146562;28;20098;-62
2022/09/06 06:55:04;;;;;;;6.97;3.67;;;;;;;21.46;56.89;100369.88;3146447;28;20110;-62
2022/09/06 06:56:38;;;;;;;7.25;3.95;;;;;;;21.54;56.42;100368.28;3146436;28;20123;-63
2022/09/06 06:58:09;;;;;;;7.07;3.53;;;;;;;21.67;56.37;100377.88;3146557;28;20300;-62
2022/09/06 06:59:41;;;;;;;6.93;4.13;;;;;;;21.77;55.81;100373.50;3146724;28;20140;-62
2022/09/06 07:01:12;;;;;;;5.82;3.83;;;;;;;21.85;55.73;100370.19;3146277;28;20509;-63
2022/09/06 07:02:44;;;;;;;5.63;4.05;;;;;;;21.93;55.52;100368.59;3146320;28;20094;-63
2022/09/06 07:04:16;;;;;;;8.85;3.80;;;;;;;22.00;54.88;100375.06;3143453;28;20055;-64
2022/09/06 07:05:48;;;;;;;7.80;3.38;;;;;;;22.09;54.70;100373.44;3146039;28;20080;-63
2022/09/06 07:07:20;;;;;;;6.57;3.78;;;;;;;22.11;54.36;100368.84;3146029;28;20056;-64
2022/09/06 07:08:53;;;;;;;4.57;3.60;;;;;;;22.23;54.33;100370.50;3146328;28;20051;-63
2022/09/06 07:10:25;;;;;;;5.25;3.10;;;;;;;22.40;54.46;100377.03;3146336;28;20052;-63
2022/09/06 07:11:57;;;;;;;8.52;3.72;;;;;;;22.57;53.70;100372.06;3146290;28;20071;-62
2022/09/06 07:13:29;;;;;;;7.65;3.47;;;;;;;22.74;53.11;100371.44;3146323;28;20053;-63
2022/09/06 07:15:01;;;;;;;9.20;3.67;;;;;;;22.93;53.27;100373.34;3146241;28;20051;-62
2022/09/06 07:16:32;;;;;;;5.28;3.00;;;;;;;23.08;52.18;100369.38;3146318;28;20121;-62